sensor_id;sensor_type;location;lat;lon;timestamp;P1;durP1;ratioP1;P2;durP2;ratioP2
45314;SDS011;31051;51.540;5.852;2024-01-30T00:09:23;8.2;;;6.9;;
45314;SDS011;31051;51.540;5.852;2024-01-30T00:21:59;8.5;;;6.9;;
45314;SDS011;31051;51.540;5.852;2024-01-30T00:34:35;7.6;;;6.7;;
45314;SDS011;31051;51.540;5.852;2024-01-30T00:47:10;7.8;;;6.8;;
45314;SDS011;31051;51.540;5.852;2024-01-30T00:59:46;7.8;;;6.5;;
45314;SDS011;31051;51.540;5.852;2024-01-30T01:12:22;7.6;;;6.8;;
45314;SDS011;31051;51.540;5.852;2024-01-30T01:24:58;7.9;;;6.8;;
45314;SDS011;31051;51.540;5.852;2024-01-30T01:37:34;7.7;;;6.7;;
45314;SDS011;31051;51.540;5.852;2024-01-30T01:50:09;8.1;;;7.0;;
45314;SDS011;31051;51.540;5.852;2024-01-30T02:02:45;7.7;;;6.7;;
45314;SDS011;31051;51.540;5.852;2024-01-30T02:15:21;7.4;;;6.6;;
45314;SDS011;31051;51.540;5.852;2024-01-30T02:27:57;7.4;;;6.4;;
45314;SDS011;31051;51.540;5.852;2024-01-30T02:40:33;7.3;;;6.3;;
45314;SDS011;31051;51.540;5.852;2024-01-30T02:53:08;7.4;;;6.3;;
45314;SDS011;31051;51.540;5.852;2024-01-30T03:05:44;7.3;;;6.4;;
45314;SDS011;31051;51.540;5.852;2024-01-30T03:18:20;7.3;;;6.4;;
45314;SDS011;31051;51.540;5.852;2024-01-30T03:30:56;7.6;;;6.4;;
45314;SDS011;31051;51.540;5.852;2024-01-30T03:43:32;8.0;;;6.2;;
45314;SDS011;31051;51.540;5.852;2024-01-30T03:56:08;7.2;;;6.0;;
45314;SDS011;31051;51.540;5.852;2024-01-30T04:08:43;7.5;;;6.2;;
45314;SDS011;31051;51.540;5.852;2024-01-30T04:21:19;7.1;;;6.2;;
45314;SDS011;31051;51.540;5.852;2024-01-30T04:33:55;7.1;;;6.1;;
45314;SDS011;31051;51.540;5.852;2024-01-30T04:46:31;7.4;;;5.9;;
45314;SDS011;31051;51.540;5.852;2024-01-30T04:59:07;6.8;;;5.7;;
45314;SDS011;31051;51.540;5.852;2024-01-30T05:11:42;6.6;;;5.5;;
45314;SDS011;31051;51.540;5.852;2024-01-30T05:24:18;6.2;;;5.5;;
45314;SDS011;31051;51.540;5.852;2024-01-30T05:36:54;6.2;;;5.6;;
45314;SDS011;31051;51.540;5.852;2024-01-30T05:49:30;5.8;;;5.1;;
45314;SDS011;31051;51.540;5.852;2024-01-30T06:02:06;6.1;;;5.1;;
45314;SDS011;31051;51.540;5.852;2024-01-30T06:14:42;6.3;;;5.0;;
45314;SDS011;31051;51.540;5.852;2024-01-30T06:27:17;6.2;;;5.2;;
45314;SDS011;31051;51.540;5.852;2024-01-30T06:39:53;5.8;;;5.0;;
45314;SDS011;31051;51.540;5.852;2024-01-30T06:52:29;6.0;;;5.3;;
45314;SDS011;31051;51.540;5.852;2024-01-30T07:05:05;6.0;;;5.2;;
45314;SDS011;31051;51.540;5.852;2024-01-30T07:17:41;6.2;;;5.0;;
45314;SDS011;31051;51.540;5.852;2024-01-30T07:30:17;5.8;;;4.9;;
45314;SDS011;31051;51.540;5.852;2024-01-30T07:42:52;6.0;;;5.1;;
45314;SDS011;31051;51.540;5.852;2024-01-30T07:55:28;6.0;;;5.2;;
45314;SDS011;31051;51.540;5.852;2024-01-30T08:08:04;6.1;;;5.2;;
45314;SDS011;31051;51.540;5.852;2024-01-30T08:20:40;6.1;;;5.2;;
45314;SDS011;31051;51.540;5.852;2024-01-30T08:33:16;6.7;;;5.0;;
45314;SDS011;31051;51.540;5.852;2024-01-30T08:45:52;6.8;;;4.7;;
45314;SDS011;31051;51.540;5.852;2024-01-30T08:58:27;6.4;;;4.8;;
45314;SDS011;31051;51.540;5.852;2024-01-30T09:11:03;6.5;;;4.8;;
45314;SDS011;31051;51.540;5.852;2024-01-30T09:23:39;5.9;;;4.9;;
45314;SDS011;31051;51.540;5.852;2024-01-30T09:36:15;6.6;;;5.1;;
45314;SDS011;31051;51.540;5.852;2024-01-30T09:48:51;6.4;;;4.9;;
45314;SDS011;31051;51.540;5.852;2024-01-30T10:01:27;6.8;;;5.4;;
45314;SDS011;31051;51.540;5.852;2024-01-30T10:14:02;6.7;;;5.4;;
45314;SDS011;31051;51.540;5.852;2024-01-30T10:26:38;7.7;;;5.7;;
45314;SDS011;31051;51.540;5.852;2024-01-30T10:39:14;7.4;;;5.6;;
45314;SDS011;31051;51.540;5.852;2024-01-30T10:51:50;7.7;;;5.6;;
45314;SDS011;31051;51.540;5.852;2024-01-30T11:04:26;8.1;;;5.4;;
45314;SDS011;31051;51.540;5.852;2024-01-30T11:17:02;8.5;;;5.4;;
45314;SDS011;31051;51.540;5.852;2024-01-30T11:29:38;7.6;;;5.6;;
45314;SDS011;31051;51.540;5.852;2024-01-30T11:42:14;8.0;;;5.7;;
45314;SDS011;31051;51.540;5.852;2024-01-30T11:54:49;7.7;;;5.6;;
45314;SDS011;31051;51.540;5.852;2024-01-30T12:07:25;7.5;;;4.9;;
45314;SDS011;31051;51.540;5.852;2024-01-30T12:20:01;7.3;;;4.6;;
45314;SDS011;31051;51.540;5.852;2024-01-30T12:32:37;7.2;;;4.6;;
45314;SDS011;31051;51.540;5.852;2024-01-30T12:45:13;6.6;;;4.1;;
45314;SDS011;31051;51.540;5.852;2024-01-30T12:57:49;8.5;;;5.0;;
45314;SDS011;31051;51.540;5.852;2024-01-30T13:10:25;6.3;;;3.6;;
45314;SDS011;31051;51.540;5.852;2024-01-30T13:23:01;4.9;;;2.5;;
45314;SDS011;31051;51.540;5.852;2024-01-30T13:35:36;2.9;;;1.5;;
45314;SDS011;31051;51.540;5.852;2024-01-30T13:48:12;2.3;;;1.1;;
45314;SDS011;31051;51.540;5.852;2024-01-30T14:00:48;2.4;;;1.0;;
45314;SDS011;31051;51.540;5.852;2024-01-30T14:13:24;2.9;;;1.2;;
45314;SDS011;31051;51.540;5.852;2024-01-30T14:26:00;2.8;;;1.3;;
45314;SDS011;31051;51.540;5.852;2024-01-30T14:38:36;3.2;;;1.2;;
45314;SDS011;31051;51.540;5.852;2024-01-30T14:51:12;3.0;;;1.2;;
45314;SDS011;31051;51.540;5.852;2024-01-30T15:03:48;3.1;;;1.3;;
45314;SDS011;31051;51.540;5.852;2024-01-30T15:16:23;3.6;;;1.9;;
45314;SDS011;31051;51.540;5.852;2024-01-30T15:28:59;4.5;;;2.5;;
45314;SDS011;31051;51.540;5.852;2024-01-30T15:41:35;7.5;;;4.6;;
45314;SDS011;31051;51.540;5.852;2024-01-30T15:54:11;8.2;;;5.4;;
45314;SDS011;31051;51.540;5.852;2024-01-30T16:06:47;6.9;;;5.0;;
45314;SDS011;31051;51.540;5.852;2024-01-30T16:19:22;6.6;;;5.2;;
45314;SDS011;31051;51.540;5.852;2024-01-30T16:31:58;6.9;;;5.4;;
45314;SDS011;31051;51.540;5.852;2024-01-30T16:44:34;6.4;;;5.7;;
45314;SDS011;31051;51.540;5.852;2024-01-30T16:57:10;6.6;;;5.7;;
45314;SDS011;31051;51.540;5.852;2024-01-30T17:09:46;6.5;;;5.8;;
45314;SDS011;31051;51.540;5.852;2024-01-30T17:22:22;7.7;;;6.2;;
45314;SDS011;31051;51.540;5.852;2024-01-30T17:34:57;8.2;;;7.4;;
45314;SDS011;31051;51.540;5.852;2024-01-30T17:47:33;9.0;;;8.2;;
45314;SDS011;31051;51.540;5.852;2024-01-30T18:00:09;9.8;;;8.9;;
45314;SDS011;31051;51.540;5.852;2024-01-30T18:12:45;8.6;;;7.8;;
45314;SDS011;31051;51.540;5.852;2024-01-30T18:25:21;8.5;;;7.7;;
45314;SDS011;31051;51.540;5.852;2024-01-30T18:37:56;9.7;;;8.8;;
45314;SDS011;31051;51.540;5.852;2024-01-30T18:50:32;10.2;;;9.2;;
45314;SDS011;31051;51.540;5.852;2024-01-30T19:03:08;10.8;;;9.8;;
45314;SDS011;31051;51.540;5.852;2024-01-30T19:15:44;10.5;;;9.5;;
45314;SDS011;31051;51.540;5.852;2024-01-30T19:28:20;10.6;;;9.6;;
45314;SDS011;31051;51.540;5.852;2024-01-30T19:40:55;10.4;;;9.5;;
45314;SDS011;31051;51.540;5.852;2024-01-30T19:53:31;10.8;;;9.8;;
45314;SDS011;31051;51.540;5.852;2024-01-30T20:06:07;10.8;;;9.8;;
45314;SDS011;31051;51.540;5.852;2024-01-30T20:18:43;11.9;;;10.9;;
45314;SDS011;31051;51.540;5.852;2024-01-30T20:31:19;13.4;;;12.2;;
45314;SDS011;31051;51.540;5.852;2024-01-30T20:43:54;13.4;;;12.2;;
45314;SDS011;31051;51.540;5.852;2024-01-30T20:56:30;13.1;;;11.9;;
45314;SDS011;31051;51.540;5.852;2024-01-30T21:09:06;13.6;;;12.4;;
45314;SDS011;31051;51.540;5.852;2024-01-30T21:21:42;14.8;;;13.4;;
45314;SDS011;31051;51.540;5.852;2024-01-30T21:34:18;15.4;;;14.0;;
45314;SDS011;31051;51.540;5.852;2024-01-30T21:46:53;15.9;;;14.4;;
45314;SDS011;31051;51.540;5.852;2024-01-30T21:59:29;15.8;;;14.2;;
45314;SDS011;31051;51.540;5.852;2024-01-30T22:12:05;14.4;;;12.7;;
45314;SDS011;31051;51.540;5.852;2024-01-30T22:24:41;14.1;;;11.0;;
45314;SDS011;31051;51.540;5.852;2024-01-30T22:37:17;11.6;;;10.1;;
45314;SDS011;31051;51.540;5.852;2024-01-30T22:49:52;15.4;;;12.8;;
45314;SDS011;31051;51.540;5.852;2024-01-30T23:02:28;16.4;;;13.7;;
45314;SDS011;31051;51.540;5.852;2024-01-30T23:15:04;16.2;;;13.9;;
45314;SDS011;31051;51.540;5.852;2024-01-30T23:27:40;17.0;;;13.8;;
45314;SDS011;31051;51.540;5.852;2024-01-30T23:40:16;16.6;;;12.2;;
45314;SDS011;31051;51.540;5.852;2024-01-30T23:52:51;15.3;;;9.0;;
